Time;durP1;ratioP1;P1;durP2;ratioP2;P2;SDS_P1;SDS_P2;PMS_P1;PMS_P2;Temp;Humidity;BMP_temperature;BMP_pressure;BME280_temperature;BME280_humidity;BME280_pressure;Samples;Min_cycle;Max_cycle;Signal;HPM_P1;HPM_P2
2022/11/11 00:00:59;;;;;;;5.90;3.60;;;11.40;99.90;;;;;;5053298;28;20197;-76
2022/11/11 00:03:45;;;;;;;6.77;3.67;;;11.40;99.90;;;;;;5049869;28;20193;-75
2022/11/11 00:06:31;;;;;;;7.37;3.87;;;11.40;99.90;;;;;;5055241;28;20209;-76
2022/11/11 00:09:17;;;;;;;5.13;3.43;;;11.40;99.90;;;;;;5056577;28;20189;-76
2022/11/11 00:12:03;;;;;;;5.20;3.70;;;11.30;99.90;;;;;;5052668;28;20710;-76
2022/11/11 00:14:49;;;;;;;6.27;4.00;;;11.30;99.90;;;;;;5054941;28;20205;-74
2022/11/11 00:26:48;;;;;;;7.13;2.93;;;11.30;99.90;;;;;;5053553;28;20209;-75
2022/11/11 00:29:34;;;;;;;4.83;3.00;;;11.20;99.90;;;;;;5055109;28;20197;-76
2022/11/11 00:32:25;;;;;;;4.47;3.00;;;11.20;99.90;;;;;;5049209;28;20239;-75
2022/11/11 00:41:18;;;;;;;5.43;3.30;;;11.10;99.90;;;;;;5055747;28;20198;-76
2022/11/11 00:44:04;;;;;;;6.17;3.07;;;11.10;99.90;;;;;;5057423;28;20194;-75
2022/11/11 00:52:59;;;;;;;5.30;3.20;;;11.10;99.90;;;;;;5041909;28;20326;-75
2022/11/11 00:55:45;;;;;;;3.27;2.97;;;11.10;99.90;;;;;;5057944;28;20544;-76
2022/11/11 00:58:31;;;;;;;5.43;3.30;;;11.00;99.90;;;;;;5058470;28;20201;-76
2022/11/11 01:01:17;;;;;;;6.93;3.17;;;11.00;99.90;;;;;;5060197;28;20197;-75
2022/11/11 01:04:03;;;;;;;5.00;3.07;;;11.00;99.90;;;;;;5053983;28;20205;-76
2022/11/11 01:06:49;;;;;;;6.87;3.50;;;11.00;99.90;;;;;;5060018;28;20213;-75
2022/11/11 01:09:37;;;;;;;5.03;3.50;;;11.00;99.90;;;;;;5059124;28;20201;-75
2022/11/11 01:12:23;;;;;;;4.33;3.10;;;11.00;99.90;;;;;;5046203;28;20228;-75
2022/11/11 01:15:10;;;;;;;6.07;2.93;;;11.00;99.90;;;;;;5056802;28;20217;-75
2022/11/11 01:17:55;;;;;;;4.13;3.43;;;10.90;99.90;;;;;;5047748;28;20205;-75
2022/11/11 01:20:42;;;;;;;6.17;3.30;;;11.00;99.90;;;;;;5056629;28;20645;-76
2022/11/11 01:23:29;;;;;;;5.40;3.17;;;11.00;99.90;;;;;;5052267;28;20209;-75
2022/11/11 01:26:17;;;;;;;7.33;3.87;;;11.00;99.90;;;;;;5060229;28;20202;-75
2022/11/11 01:29:04;;;;;;;4.60;3.27;;;11.00;99.90;;;;;;5059532;28;20277;-75
2022/11/11 01:31:50;;;;;;;5.47;3.23;;;11.00;99.90;;;;;;5053385;28;20224;-75
2022/11/11 01:34:36;;;;;;;5.93;3.20;;;11.00;99.90;;;;;;5056162;28;20209;-75
2022/11/11 01:37:22;;;;;;;4.40;3.17;;;11.00;99.90;;;;;;5057055;28;20201;-75
2022/11/11 01:40:09;;;;;;;4.20;2.87;;;11.00;99.90;;;;;;5055878;28;20201;-75
2022/11/11 01:43:21;;;;;;;4.33;2.83;;;11.00;99.90;;;;;;5049653;28;20217;-75
2022/11/11 01:46:22;;;;;;;3.40;2.73;;;11.00;99.90;;;;;;5058733;28;20201;-75
2022/11/11 01:49:22;;;;;;;4.13;3.27;;;10.90;99.90;;;;;;5058018;28;20193;-75
2022/11/11 01:52:12;;;;;;;4.83;2.93;;;10.90;99.90;;;;;;5055890;28;20801;-75
2022/11/11 01:55:24;;;;;;;4.43;2.80;;;10.90;99.90;;;;;;5051413;28;20217;-76
2022/11/11 01:58:15;;;;;;;6.10;3.23;;;10.90;99.90;;;;;;5060761;28;20184;-75
2022/11/11 02:01:01;;;;;;;3.57;2.80;;;10.90;99.90;;;;;;5056644;28;20201;-75
2022/11/11 02:06:54;;;;;;;3.97;2.90;;;11.00;99.90;;;;;;5053034;28;20213;-76
2022/11/11 02:09:42;;;;;;;5.87;2.63;;;10.90;99.90;;;;;;5040166;28;20273;-76
2022/11/11 02:15:33;;;;;;;3.83;2.97;;;10.90;99.90;;;;;;5058172;28;20272;-76
2022/11/11 02:18:19;;;;;;;7.87;2.53;;;10.90;99.90;;;;;;5057929;28;20194;-75
2022/11/11 02:21:05;;;;;;;4.73;2.60;;;10.90;99.90;;;;;;5054902;28;20197;-76
2022/11/11 02:24:02;;;;;;;4.03;2.43;;;10.90;99.90;;;;;;5056559;28;20193;-73
2022/11/11 02:26:48;;;;;;;5.50;2.60;;;10.90;99.90;;;;;;5042285;28;20210;-75
2022/11/11 02:29:36;;;;;;;3.63;2.33;;;10.90;99.90;;;;;;5057394;28;20205;-76
2022/11/11 02:32:22;;;;;;;4.17;2.50;;;10.90;99.90;;;;;;5054862;28;20224;-75
2022/11/11 02:35:13;;;;;;;4.97;3.10;;;10.90;99.90;;;;;;5058817;28;20193;-75
2022/11/11 02:38:00;;;;;;;5.43;2.90;;;10.80;99.90;;;;;;5057658;28;20197;-76
2022/11/11 02:43:47;;;;;;;5.33;3.17;;;10.90;99.90;;;;;;5046287;28;20197;-75
2022/11/11 02:46:34;;;;;;;5.37;2.50;;;10.80;99.90;;;;;;5051405;28;20225;-76
2022/11/11 02:49:20;;;;;;;2.77;2.53;;;10.80;99.90;;;;;;5059945;28;20565;-75
2022/11/11 02:52:06;;;;;;;6.10;3.07;;;10.80;99.90;;;;;;5053552;28;20233;-76
2022/11/11 02:55:11;;;;;;;3.93;2.50;;;10.80;99.90;;;;;;5055215;28;20690;-75
2022/11/11 02:57:58;;;;;;;3.73;2.80;;;10.70;99.90;;;;;;5051381;28;21146;-75
2022/11/11 03:00:44;;;;;;;5.17;2.30;;;10.80;99.90;;;;;;5056356;28;20205;-76
2022/11/11 03:03:30;;;;;;;6.63;2.40;;;10.80;99.90;;;;;;5048571;28;20240;-75
2022/11/11 03:06:16;;;;;;;4.00;2.43;;;10.70;99.90;;;;;;5055195;28;20189;-75
2022/11/11 03:09:03;;;;;;;5.07;2.80;;;10.70;99.90;;;;;;5054753;28;20197;-75
2022/11/11 03:11:49;;;;;;;3.87;2.50;;;10.70;99.90;;;;;;5056218;28;20582;-76
2022/11/11 03:14:37;;;;;;;6.67;3.07;;;10.60;99.90;;;;;;5051669;28;20214;-75
2022/11/11 03:17:40;;;;;;;3.80;2.60;;;10.70;99.90;;;;;;5056875;28;20201;-75
2022/11/11 03:23:30;;;;;;;3.23;2.80;;;10.60;99.90;;;;;;5048200;28;20224;-76
2022/11/11 03:26:16;;;;;;;5.97;2.90;;;10.60;99.90;;;;;;5056674;28;20210;-76
2022/11/11 03:29:03;;;;;;;7.20;3.00;;;10.60;99.90;;;;;;5053923;28;20237;-75
2022/11/11 03:31:50;;;;;;;4.13;2.83;;;10.60;99.90;;;;;;5053010;28;20221;-76
2022/11/11 03:34:37;;;;;;;3.40;3.00;;;10.60;99.90;;;;;;5049290;28;20201;-75
2022/11/11 03:40:28;;;;;;;4.57;2.93;;;10.60;99.90;;;;;;5047723;28;20190;-76
2022/11/11 03:43:16;;;;;;;5.57;2.80;;;10.60;99.90;;;;;;5052391;28;20229;-75
2022/11/11 03:46:03;;;;;;;6.07;3.00;;;10.60;99.90;;;;;;5056910;28;20690;-75
2022/11/11 03:48:51;;;;;;;3.47;2.63;;;10.60;99.90;;;;;;5055613;28;20564;-75
2022/11/11 03:51:37;;;;;;;3.53;2.97;;;10.60;99.90;;;;;;5053546;28;20220;-75
2022/11/11 03:54:23;;;;;;;7.77;3.03;;;10.60;99.90;;;;;;5063738;28;20201;-76
2022/11/11 04:00:17;;;;;;;4.87;2.70;;;10.50;99.90;;;;;;5050070;28;20189;-75
2022/11/11 04:21:51;;;;;;;4.43;3.13;;;10.50;99.90;;;;;;5058315;28;20194;-75
2022/11/11 04:27:41;;;;;;;3.97;2.83;;;10.40;99.90;;;;;;5067710;28;20208;-75
2022/11/11 04:30:36;;;;;;;5.77;3.03;;;10.40;99.90;;;;;;5066958;28;20232;-75
2022/11/11 04:33:22;;;;;;;5.53;2.57;;;10.40;99.90;;;;;;5065404;28;20197;-75
2022/11/11 04:36:08;;;;;;;4.53;2.80;;;10.40;99.90;;;;;;5062560;28;20205;-74
2022/11/11 04:41:59;;;;;;;4.37;2.70;;;10.40;99.90;;;;;;5061123;28;20196;-74
2022/11/11 04:47:54;;;;;;;4.30;2.70;;;10.30;99.90;;;;;;5066653;28;20212;-74
2022/11/11 04:50:42;;;;;;;3.67;2.60;;;10.30;99.90;;;;;;5055507;28;20229;-74
2022/11/11 04:53:29;;;;;;;5.77;3.27;;;10.30;99.90;;;;;;5074118;28;20212;-74
2022/11/11 04:59:20;;;;;;;5.27;2.67;;;10.40;99.90;;;;;;5064643;28;20193;-74
2022/11/11 05:05:11;;;;;;;3.83;2.90;;;10.40;99.90;;;;;;5070474;28;20193;-75
2022/11/11 05:11:01;;;;;;;4.87;2.50;;;10.50;99.90;;;;;;5064382;28;20228;-74
2022/11/11 05:23:01;;;;;;;5.17;2.47;;;10.50;99.90;;;;;;5067222;28;20189;-74
2022/11/11 05:25:46;;;;;;;2.90;2.40;;;10.50;99.90;;;;;;5073652;28;20679;-76
2022/11/11 05:28:32;;;;;;;3.80;2.30;;;10.50;99.90;;;;;;5074822;28;20216;-75
2022/11/11 05:31:19;;;;;;;3.30;2.30;;;10.50;99.90;;;;;;5063356;28;20225;-75
2022/11/11 05:34:05;;;;;;;4.07;2.47;;;10.50;99.90;;;;;;5061880;28;20197;-75
2022/11/11 05:36:51;;;;;;;4.70;2.53;;;10.50;99.90;;;;;;5078223;28;20192;-75
2022/11/11 05:39:38;;;;;;;4.80;2.80;;;10.50;99.90;;;;;;5071237;28;20236;-74
2022/11/11 05:42:24;;;;;;;4.30;2.47;;;10.50;99.90;;;;;;5071359;28;20192;-74
2022/11/11 05:45:10;;;;;;;4.20;2.73;;;10.50;99.90;;;;;;5072163;28;20200;-74
2022/11/11 05:52:15;;;;;;;5.47;2.60;;;10.50;99.90;;;;;;5069918;28;20165;-74
2022/11/11 05:55:01;;;;;;;3.17;2.67;;;10.50;99.90;;;;;;5068698;28;20197;-74
2022/11/11 05:58:06;;;;;;;6.53;3.00;;;10.50;99.90;;;;;;5071804;28;20193;-74
2022/11/11 06:00:52;;;;;;;6.00;2.90;;;10.50;99.90;;;;;;5066022;28;20221;-76
2022/11/11 06:03:38;;;;;;;3.60;2.37;;;10.50;99.90;;;;;;5076465;28;20193;-77
2022/11/11 06:06:24;;;;;;;4.63;3.10;;;10.50;99.90;;;;;;5069007;28;20201;-77
2022/11/11 06:09:21;;;;;;;3.47;2.57;;;10.40;99.90;;;;;;5066766;28;20209;-77
2022/11/11 06:12:07;;;;;;;5.13;2.97;;;10.40;99.90;;;;;;5064732;28;20198;-77
2022/11/11 06:15:03;;;;;;;5.87;2.67;;;10.50;99.90;;;;;;5067765;28;20194;-76
2022/11/11 06:17:49;;;;;;;5.23;3.33;;;10.50;99.90;;;;;;5069353;28;20205;-76
2022/11/11 06:21:17;;;;;;;4.13;2.23;;;10.50;99.90;;;;;;5063019;28;20225;-76
2022/11/11 06:24:03;;;;;;;3.53;2.67;;;10.50;99.90;;;;;;5076655;28;20205;-76
2022/11/11 06:26:59;;;;;;;5.73;2.90;;;10.40;99.90;;;;;;5063730;28;20193;-77
2022/11/11 06:29:45;;;;;;;4.90;3.30;;;10.40;99.90;;;;;;5073063;28;20225;-77
2022/11/11 06:32:31;;;;;;;5.27;3.00;;;10.40;99.90;;;;;;5061662;28;20193;-77
2022/11/11 06:35:17;;;;;;;6.07;3.40;;;10.50;99.90;;;;;;5060185;28;20197;-77
2022/11/11 06:38:23;;;;;;;5.40;3.30;;;10.50;99.90;;;;;;5064880;28;20190;-77
2022/11/11 06:41:11;;;;;;;3.67;2.70;;;10.50;99.90;;;;;;5058518;28;20225;-77
2022/11/11 06:43:59;;;;;;;4.63;2.47;;;10.50;99.90;;;;;;5062776;28;20202;-77
2022/11/11 06:46:46;;;;;;;3.67;2.40;;;10.50;99.90;;;;;;5074054;28;20204;-76
2022/11/11 06:49:32;;;;;;;4.07;2.67;;;10.50;99.90;;;;;;5069030;28;20729;-76
2022/11/11 06:52:19;;;;;;;3.20;2.43;;;10.50;99.90;;;;;;5064071;28;20200;-78
2022/11/11 06:55:07;;;;;;;5.00;2.67;;;10.40;99.90;;;;;;5066624;28;20193;-78
2022/11/11 06:57:53;;;;;;;3.60;2.47;;;10.40;99.90;;;;;;5069443;28;20197;-78
2022/11/11 07:00:41;;;;;;;4.27;2.50;;;10.40;99.90;;;;;;5069738;28;20248;-76
2022/11/11 07:03:26;;;;;;;4.10;2.37;;;10.50;99.90;;;;;;5039207;28;20216;-76
2022/11/11 07:06:12;;;;;;;4.73;2.70;;;10.50;99.90;;;;;;5071185;28;20192;-76
2022/11/11 07:09:02;;;;;;;4.53;2.10;;;10.50;99.90;;;;;;5067946;28;20232;-76
2022/11/11 07:11:48;;;;;;;4.50;2.27;;;10.50;99.90;;;;;;5067550;28;20221;-77
2022/11/11 07:14:34;;;;;;;4.03;2.53;;;10.50;99.90;;;;;;5068946;28;20216;-76
2022/11/11 07:17:21;;;;;;;2.80;2.50;;;10.50;99.90;;;;;;5060721;28;20201;-77
2022/11/11 07:20:22;;;;;;;4.70;2.57;;;10.50;99.90;;;;;;5058503;28;20607;-77
2022/11/11 07:23:08;;;;;;;3.30;2.07;;;10.50;99.90;;;;;;5058935;28;20192;-76
2022/11/11 07:25:54;;;;;;;4.57;1.97;;;10.50;99.90;;;;;;5065519;28;20197;-77
2022/11/11 07:28:41;;;;;;;5.20;2.50;;;10.50;99.90;;;;;;5069465;28;20217;-77
2022/11/11 07:31:26;;;;;;;3.23;2.47;;;10.50;99.90;;;;;;5063017;28;20237;-77
2022/11/11 07:34:14;;;;;;;5.33;2.47;;;10.50;99.90;;;;;;5068464;28;21147;-76
2022/11/11 07:37:00;;;;;;;3.40;2.40;;;10.50;99.90;;;;;;5061287;28;20209;-76
2022/11/11 07:39:46;;;;;;;4.23;2.17;;;10.50;99.90;;;;;;5066019;28;20229;-76
2022/11/11 07:42:32;;;;;;;5.17;2.53;;;10.60;99.90;;;;;;5064270;28;20228;-76
2022/11/11 07:45:18;;;;;;;5.93;2.47;;;10.70;99.90;;;;;;5067457;28;20197;-76
2022/11/11 07:48:04;;;;;;;6.37;2.33;;;10.70;99.90;;;;;;5071441;28;20662;-76
2022/11/11 07:50:53;;;;;;;3.93;2.47;;;10.80;99.90;;;;;;5059233;28;20232;-76
2022/11/11 07:53:40;;;;;;;5.13;2.30;;;10.90;99.90;;;;;;5064655;28;20289;-76
2022/11/11 07:56:26;;;;;;;6.30;2.60;;;10.90;99.90;;;;;;5060785;28;20200;-77
2022/11/11 07:59:12;;;;;;;3.50;2.10;;;11.00;99.90;;;;;;5069881;28;20198;-76
2022/11/11 08:01:58;;;;;;;5.57;2.07;;;11.10;99.90;;;;;;5055528;28;20209;-76
2022/11/11 08:04:44;;;;;;;4.53;2.10;;;11.10;99.90;;;;;;5065687;28;20197;-76
2022/11/11 08:07:34;;;;;;;3.37;2.00;;;11.20;99.90;;;;;;5059834;28;20193;-76
2022/11/11 08:10:20;;;;;;;3.93;1.80;;;11.20;99.90;;;;;;5055168;28;20221;-76
2022/11/11 08:16:11;;;;;;;5.50;2.33;;;11.30;99.90;;;;;;5052340;28;20185;-76
2022/11/11 08:18:57;;;;;;;3.87;2.00;;;11.40;99.90;;;;;;5066310;28;20193;-76
2022/11/11 08:21:43;;;;;;;3.40;2.00;;;11.40;99.90;;;;;;5053228;28;20735;-76
2022/11/11 08:24:31;;;;;;;4.50;1.67;;;11.40;99.90;;;;;;5063919;28;20204;-76
2022/11/11 08:27:17;;;;;;;4.13;2.17;;;11.50;99.90;;;;;;5068260;28;20208;-76
2022/11/11 08:30:04;;;;;;;2.37;1.70;;;11.60;99.90;;;;;;5061878;28;20721;-76
2022/11/11 08:32:57;;;;;;;2.80;1.60;;;11.60;99.90;;;;;;5069656;28;20197;-75
2022/11/11 08:35:42;;;;;;;4.90;2.00;;;11.70;99.90;;;;;;5066770;28;20209;-75
2022/11/11 08:38:29;;;;;;;3.23;1.93;;;11.70;99.90;;;;;;5071628;28;20201;-77
2022/11/11 08:41:16;;;;;;;2.80;2.27;;;11.80;99.90;;;;;;5068504;28;20217;-75
2022/11/11 08:44:03;;;;;;;3.60;1.70;;;11.80;99.90;;;;;;5073032;28;20193;-76
2022/11/11 08:46:49;;;;;;;3.97;1.77;;;11.80;99.90;;;;;;5067570;28;20425;-76
2022/11/11 08:49:36;;;;;;;3.23;1.40;;;11.90;99.90;;;;;;5066539;28;20232;-76
2022/11/11 08:52:22;;;;;;;5.23;1.83;;;12.00;99.90;;;;;;5068060;28;20211;-77
2022/11/11 08:55:08;;;;;;;3.63;1.60;;;12.10;99.90;;;;;;5074477;28;20196;-77
2022/11/11 08:58:03;;;;;;;4.93;1.80;;;12.10;99.90;;;;;;5070133;28;20193;-77
2022/11/11 09:00:49;;;;;;;1.83;1.43;;;12.20;99.90;;;;;;5063035;28;20213;-78
2022/11/11 09:03:35;;;;;;;3.47;1.63;;;12.10;99.90;;;;;;5070224;28;20198;-78
2022/11/11 09:06:21;;;;;;;2.23;1.90;;;12.20;99.90;;;;;;5063442;28;20540;-78
2022/11/11 09:09:08;;;;;;;3.40;1.60;;;12.20;99.90;;;;;;5067709;28;20197;-75
2022/11/11 09:12:04;;;;;;;2.43;1.53;;;12.30;99.90;;;;;;5061998;28;20208;-75
2022/11/11 09:14:51;;;;;;;2.40;1.63;;;12.30;99.90;;;;;;5072581;28;20202;-75
2022/11/11 09:17:37;;;;;;;4.23;1.90;;;12.30;99.90;;;;;;5065632;28;20567;-75
2022/11/11 09:20:23;;;;;;;2.63;1.40;;;12.30;99.90;;;;;;5060151;28;20228;-75
2022/11/11 09:23:10;;;;;;;2.60;1.70;;;12.30;99.90;;;;;;5071632;28;20548;-78
2022/11/11 09:26:02;;;;;;;3.23;1.77;;;12.40;99.90;;;;;;5073459;28;20189;-74
2022/11/11 09:28:54;;;;;;;2.40;1.60;;;12.50;99.90;;;;;;5064182;28;20536;-76
2022/11/11 09:31:43;;;;;;;2.87;1.60;;;12.60;99.90;;;;;;5071462;28;20686;-76
2022/11/11 09:34:29;;;;;;;3.73;1.60;;;12.50;99.90;;;;;;5078427;28;20205;-76
2022/11/11 09:37:34;;;;;;;2.40;1.58;;;12.60;99.90;;;;;;5077266;28;20205;-76
2022/11/11 09:40:22;;;;;;;2.55;1.50;;;12.70;99.90;;;;;;5068559;28;20296;-76
2022/11/11 09:43:17;;;;;;;2.13;1.63;;;12.90;99.90;;;;;;5073696;28;20188;-76
2022/11/11 09:46:16;;;;;;;3.78;2.10;;;12.90;99.90;;;;;;5075671;28;20201;-76
2022/11/11 09:49:25;;;;;;;1.98;1.63;;;13.00;99.90;;;;;;5062990;28;20205;-76
2022/11/11 09:52:17;;;;;;;2.47;1.80;;;12.90;99.90;;;;;;5078601;28;20205;-76
2022/11/11 09:55:13;;;;;;;2.25;1.90;;;13.00;99.90;;;;;;5063725;28;20205;-76
2022/11/11 09:58:04;;;;;;;2.83;1.58;;;13.10;99.90;;;;;;5068453;28;20691;-76
2022/11/11 10:00:56;;;;;;;2.25;1.40;;;13.20;99.90;;;;;;5071905;28;20220;-76
2022/11/11 10:03:49;;;;;;;2.67;1.55;;;13.30;99.90;;;;;;5069521;28;20213;-76
2022/11/11 10:06:39;;;;;;;1.85;1.40;;;13.40;99.70;;;;;;5080442;28;20204;-76
2022/11/11 10:09:31;;;;;;;2.05;1.65;;;13.60;99.30;;;;;;5067690;28;20204;-77
2022/11/11 10:12:17;;;;;;;3.47;1.63;;;13.80;98.60;;;;;;5069987;28;20205;-76
2022/11/11 10:15:05;;;;;;;2.20;1.67;;;14.00;98.60;;;;;;5067659;28;20208;-76
2022/11/11 10:18:11;;;;;;;1.70;1.50;;;14.00;98.30;;;;;;5065414;28;20204;-76
2022/11/11 10:21:09;;;;;;;3.55;1.70;;;14.00;97.80;;;;;;5062463;28;20209;-78
2022/11/11 10:24:01;;;;;;;1.60;1.50;;;14.10;97.40;;;;;;5068432;28;20198;-79
2022/11/11 10:26:48;;;;;;;4.15;1.90;;;14.00;97.50;;;;;;5065383;28;20206;-76
2022/11/11 10:29:43;;;;;;;5.35;1.90;;;14.20;97.50;;;;;;5069252;28;20228;-76
2022/11/11 10:32:33;;;;;;;5.70;1.60;;;14.30;96.70;;;;;;5072147;28;20193;-76
2022/11/11 10:35:23;;;;;;;3.30;1.58;;;14.60;96.90;;;;;;5079241;28;20217;-76
2022/11/11 10:38:23;;;;;;;4.15;1.80;;;14.40;96.20;;;;;;5078303;28;20694;-76
2022/11/11 10:41:20;;;;;;;2.72;1.60;;;14.60;96.30;;;;;;5068942;28;20221;-76
2022/11/11 10:44:22;;;;;;;2.72;1.60;;;14.80;95.90;;;;;;5073433;28;20208;-76
2022/11/11 10:47:35;;;;;;;3.38;1.67;;;15.00;95.30;;;;;;5076139;28;20196;-76
2022/11/11 10:50:38;;;;;;;2.70;1.55;;;15.10;95.30;;;;;;5073410;28;20224;-76
2022/11/11 10:53:33;;;;;;;1.92;1.27;;;15.00;95.60;;;;;;5067357;28;20189;-76
2022/11/11 10:56:33;;;;;;;2.20;1.70;;;15.10;94.90;;;;;;5052005;28;20182;-76
2022/11/11 10:59:39;;;;;;;3.67;1.85;;;15.50;93.60;;;;;;5077817;28;20196;-76
2022/11/11 11:02:30;;;;;;;2.67;1.55;;;15.10;93.80;;;;;;5069477;28;20203;-75
2022/11/11 11:05:22;;;;;;;4.45;1.67;;;15.20;94.00;;;;;;5072889;28;20206;-77
2022/11/11 11:08:20;;;;;;;2.05;1.50;;;15.90;93.40;;;;;;5074571;28;20650;-76
2022/11/11 11:11:14;;;;;;;2.88;1.75;;;16.00;92.60;;;;;;5067005;28;20714;-76
2022/11/11 11:14:06;;;;;;;2.50;1.35;;;16.00;92.40;;;;;;5068705;28;20201;-76
2022/11/11 11:16:54;;;;;;;1.73;1.08;;;15.60;92.40;;;;;;5068514;28;20576;-76
2022/11/11 11:19:40;;;;;;;1.88;1.10;;;15.30;93.30;;;;;;5067305;28;20233;-76
2022/11/11 11:22:45;;;;;;;3.80;1.60;;;15.20;92.30;;;;;;5077268;28;20201;-76
2022/11/11 11:25:53;;;;;;;1.17;0.85;;;15.60;92.60;;;;;;5073964;28;20212;-76
2022/11/11 11:28:53;;;;;;;4.95;1.40;;;15.70;91.50;;;;;;5060196;28;20200;-76
2022/11/11 11:31:43;;;;;;;1.63;1.08;;;15.70;91.70;;;;;;5066866;28;20214;-76
2022/11/11 11:34:47;;;;;;;3.65;1.60;;;15.70;92.50;;;;;;5070154;28;20683;-76
2022/11/11 11:37:49;;;;;;;1.90;1.25;;;16.10;91.10;;;;;;5067638;28;20205;-76
2022/11/11 11:40:49;;;;;;;2.13;1.05;;;16.30;91.00;;;;;;5066008;28;20224;-77
2022/11/11 11:43:36;;;;;;;2.60;1.08;;;16.10;86.60;;;;;;5078616;28;20201;-77
2022/11/11 11:46:44;;;;;;;1.42;0.93;;;16.20;87.10;;;;;;5058883;28;20202;-77
2022/11/11 11:49:44;;;;;;;3.40;0.95;;;16.30;86.30;;;;;;5070494;28;20200;-77
2022/11/11 11:52:38;;;;;;;3.40;1.10;;;16.00;86.10;;;;;;5075594;28;20206;-77
2022/11/11 11:55:28;;;;;;;2.28;0.70;;;16.00;86.70;;;;;;5061343;28;20201;-77
2022/11/11 11:58:24;;;;;;;2.80;1.10;;;16.60;85.70;;;;;;5072582;28;20204;-77
2022/11/11 12:01:15;;;;;;;2.53;1.13;;;17.20;81.70;;;;;;5069587;28;20225;-77
2022/11/11 12:04:47;;;;;;;2.30;0.70;;;16.70;81.50;;;;;;5063678;28;20260;-77
2022/11/11 12:07:49;;;;;;;1.92;1.08;;;16.50;82.00;;;;;;5059314;28;20198;-77
2022/11/11 12:10:44;;;;;;;2.05;1.08;;;16.40;82.20;;;;;;5071629;28;20235;-77
2022/11/11 12:13:43;;;;;;;2.15;1.00;;;16.40;82.00;;;;;;5074483;28;20197;-77
2022/11/11 12:16:38;;;;;;;2.38;0.88;;;16.70;82.00;;;;;;5078787;28;20197;-77
2022/11/11 12:19:36;;;;;;;0.77;0.70;;;16.70;81.00;;;;;;5068716;28;20201;-76
2022/11/11 12:22:43;;;;;;;2.35;1.30;;;16.80;80.60;;;;;;5082977;28;20216;-77
2022/11/11 12:25:43;;;;;;;0.73;0.70;;;16.70;81.20;;;;;;5082811;28;20196;-76
2022/11/11 12:28:52;;;;;;;1.67;0.98;;;16.40;80.60;;;;;;5103965;22;20228;-80
2022/11/11 12:31:56;;;;;;;1.20;0.90;;;16.40;80.80;;;;;;5087515;28;20217;-80
2022/11/11 12:35:02;;;;;;;1.52;0.90;;;16.30;81.50;;;;;;5079588;28;20204;-80
2022/11/11 12:38:01;;;;;;;1.88;0.80;;;16.10;82.00;;;;;;5076167;28;20217;-80
2022/11/11 12:41:01;;;;;;;1.20;0.80;;;16.10;81.60;;;;;;5076656;28;20558;-80
2022/11/11 12:43:57;;;;;;;2.10;0.93;;;15.90;82.30;;;;;;5083535;28;20200;-80
2022/11/11 12:46:53;;;;;;;3.25;0.90;;;15.90;82.70;;;;;;5078730;28;20224;-80
2022/11/11 12:49:56;;;;;;;1.42;1.20;;;15.90;82.30;;;;;;5081969;28;20200;-80
2022/11/11 12:53:00;;;;;;;2.63;1.25;;;16.00;82.30;;;;;;5080504;28;20212;-80
2022/11/11 12:55:54;;;;;;;1.33;0.90;;;16.20;82.00;;;;;;5087813;28;20189;-80
2022/11/11 12:58:46;;;;;;;2.45;1.00;;;16.30;81.80;;;;;;5072298;28;20217;-80
2022/11/11 13:01:49;;;;;;;3.80;1.25;;;16.60;80.70;;;;;;5068270;28;20201;-80
2022/11/11 13:04:49;;;;;;;1.45;1.00;;;16.80;79.80;;;;;;5087952;28;20201;-80
2022/11/11 13:08:01;;;;;;;3.05;1.40;;;16.80;79.60;;;;;;5080712;28;20236;-80
2022/11/11 13:10:57;;;;;;;2.40;1.17;;;17.00;78.90;;;;;;5080246;28;20548;-80
2022/11/11 13:14:04;;;;;;;2.15;1.27;;;17.40;79.60;;;;;;5076048;28;20200;-80
2022/11/11 13:16:51;;;;;;;2.50;1.05;;;17.40;78.00;;;;;;5078500;28;20225;-81
2022/11/11 13:19:41;;;;;;;1.73;1.08;;;17.90;76.10;;;;;;5073318;28;20202;-80
2022/11/11 13:22:30;;;;;;;1.63;1.05;;;17.70;75.20;;;;;;5081852;28;20192;-80
2022/11/11 13:25:22;;;;;;;2.00;1.10;;;17.40;74.80;;;;;;5080268;28;20221;-79
2022/11/11 13:28:17;;;;;;;2.17;0.90;;;17.70;73.50;;;;;;5070969;28;20228;-80
2022/11/11 13:31:11;;;;;;;2.17;0.95;;;17.90;73.00;;;;;;5077242;28;20214;-80
2022/11/11 13:34:03;;;;;;;1.50;0.85;;;18.10;71.80;;;;;;5070598;28;20201;-80
2022/11/11 13:36:54;;;;;;;0.80;0.80;;;17.60;71.50;;;;;;5068773;28;20236;-80
2022/11/11 13:39:46;;;;;;;2.65;0.82;;;17.90;72.20;;;;;;5071056;28;20216;-79
2022/11/11 13:42:38;;;;;;;1.40;1.00;;;17.70;71.50;;;;;;5072250;28;20276;-79
2022/11/11 13:45:32;;;;;;;1.10;0.85;;;17.80;71.80;;;;;;5078622;28;20223;-80
2022/11/11 13:48:28;;;;;;;1.70;0.93;;;18.60;71.90;;;;;;5080084;28;20577;-79
2022/11/11 13:51:25;;;;;;;1.58;1.20;;;18.70;69.70;;;;;;5083056;28;20213;-79
2022/11/11 13:54:24;;;;;;;2.53;1.50;;;18.50;70.10;;;;;;5075234;28;20208;-80
2022/11/11 13:57:19;;;;;;;1.90;1.50;;;19.00;69.10;;;;;;5078075;28;20225;-79
2022/11/11 14:00:23;;;;;;;2.17;1.00;;;18.90;68.50;;;;;;5074838;28;20189;-79
2022/11/11 14:03:33;;;;;;;3.05;1.63;;;18.80;67.80;;;;;;5078496;28;20197;-79
2022/11/11 14:06:53;;;;;;;2.20;1.23;;;19.20;65.90;;;;;;5073079;28;20209;-79
2022/11/11 14:10:01;;;;;;;2.05;1.10;;;18.90;65.90;;;;;;5077681;28;20554;-80
2022/11/11 14:12:48;;;;;;;1.75;0.93;;;19.40;65.70;;;;;;5069318;28;20702;-80
2022/11/11 14:15:44;;;;;;;1.95;1.35;;;19.60;63.40;;;;;;5080584;28;20212;-79
2022/11/11 14:18:48;;;;;;;1.92;1.02;;;19.50;63.50;;;;;;5073435;28;20221;-79
2022/11/11 14:21:48;;;;;;;4.50;1.55;;;19.60;63.10;;;;;;5076458;28;20212;-80
2022/11/11 14:24:37;;;;;;;2.83;1.20;;;19.10;63.50;;;;;;5076492;28;20198;-80
2022/11/11 14:27:28;;;;;;;1.40;1.15;;;19.10;63.10;;;;;;5070297;28;20631;-79
2022/11/11 14:30:35;;;;;;;2.20;1.08;;;19.10;62.30;;;;;;5073462;28;20197;-79
2022/11/11 14:33:44;;;;;;;3.22;1.20;;;19.60;62.40;;;;;;5074111;28;20196;-79
2022/11/11 14:36:38;;;;;;;2.88;1.33;;;19.50;60.80;;;;;;5075060;28;20200;-80
2022/11/11 14:39:36;;;;;;;4.00;1.40;;;19.40;61.50;;;;;;5078470;28;20193;-80
2022/11/11 14:42:47;;;;;;;3.00;1.30;;;19.10;62.40;;;;;;5075352;28;20209;-80
2022/11/11 14:46:01;;;;;;;1.60;1.00;;;19.00;62.70;;;;;;5078567;28;20197;-84
2022/11/11 14:49:02;;;;;;;2.38;1.15;;;19.00;63.40;;;;;;5075857;28;20189;-81
2022/11/11 14:51:51;;;;;;;2.75;0.90;;;19.10;63.00;;;;;;5082497;28;20188;-80
2022/11/11 14:55:02;;;;;;;2.35;1.00;;;18.90;62.80;;;;;;5079080;28;20205;-80
2022/11/11 14:58:03;;;;;;;1.50;1.00;;;18.60;63.90;;;;;;5072322;28;20228;-80
2022/11/11 15:00:53;;;;;;;2.53;1.08;;;18.20;66.40;;;;;;5052887;28;20201;-80
2022/11/11 15:03:48;;;;;;;1.83;1.25;;;17.90;69.00;;;;;;5074931;28;20221;-80
2022/11/11 15:06:45;;;;;;;2.63;1.38;;;17.20;73.00;;;;;;5080513;28;20201;-79
2022/11/11 15:10:08;;;;;;;3.10;1.70;;;16.60;76.90;;;;;;5049553;28;20209;-79
2022/11/11 15:13:24;;;;;;;2.85;1.40;;;16.30;80.80;;;;;;5068860;28;20201;-80
2022/11/11 15:16:21;;;;;;;2.85;1.63;;;16.30;83.00;;;;;;5072686;28;20212;-80
2022/11/11 15:19:32;;;;;;;3.13;1.73;;;16.10;85.00;;;;;;5069428;28;20193;-79
2022/11/11 15:22:47;;;;;;;3.72;2.10;;;16.20;86.50;;;;;;5071800;28;20205;-79
2022/11/11 15:25:46;;;;;;;3.83;1.95;;;16.10;87.70;;;;;;5080189;28;20213;-79
2022/11/11 15:28:45;;;;;;;3.10;2.10;;;15.80;90.10;;;;;;5070636;28;20233;-79
2022/11/11 15:31:37;;;;;;;4.30;2.05;;;15.60;91.10;;;;;;5069306;28;20197;-79
2022/11/11 15:34:32;;;;;;;3.78;2.22;;;15.40;92.20;;;;;;5068980;28;20230;-79
2022/11/11 15:37:20;;;;;;;2.50;2.10;;;15.20;93.20;;;;;;5065148;28;20265;-80
2022/11/11 15:40:23;;;;;;;4.45;2.38;;;15.00;94.10;;;;;;5072724;28;20192;-78
2022/11/11 15:43:16;;;;;;;2.45;1.75;;;14.70;95.60;;;;;;5073525;28;20213;-80
2022/11/11 15:46:04;;;;;;;3.08;2.10;;;14.60;96.10;;;;;;5071940;28;20669;-79
2022/11/11 15:48:51;;;;;;;2.60;1.92;;;14.40;97.40;;;;;;5070478;28;20197;-80
2022/11/11 15:51:37;;;;;;;2.92;2.30;;;14.30;97.80;;;;;;5077733;28;20216;-80
2022/11/11 15:54:23;;;;;;;4.40;2.72;;;14.10;99.00;;;;;;5067493;28;20204;-79
2022/11/11 15:57:34;;;;;;;4.85;2.35;;;14.10;99.30;;;;;;5068176;28;20246;-79
2022/11/11 16:00:37;;;;;;;2.30;1.85;;;14.10;99.10;;;;;;5068455;28;20200;-80
2022/11/11 16:03:30;;;;;;;3.58;2.00;;;14.00;99.50;;;;;;5071575;28;20574;-79
2022/11/11 16:06:28;;;;;;;4.40;2.05;;;13.90;99.90;;;;;;5066970;28;20185;-79
2022/11/11 16:09:30;;;;;;;2.75;2.13;;;13.90;99.90;;;;;;5076870;28;20196;-80
2022/11/11 16:12:30;;;;;;;1.80;1.50;;;14.00;99.90;;;;;;5074543;28;20197;-80
2022/11/11 16:15:24;;;;;;;2.60;2.00;;;14.70;99.90;;;;;;5078673;28;20204;-82
2022/11/11 16:18:22;;;;;;;5.60;2.88;;;14.20;99.90;;;;;;5069276;28;20225;-76
2022/11/11 16:21:12;;;;;;;3.90;2.28;;;13.90;99.90;;;;;;5069973;28;20553;-76
2022/11/11 16:24:00;;;;;;;3.00;2.22;;;13.80;99.90;;;;;;5073996;28;20208;-76
2022/11/11 16:26:55;;;;;;;4.60;2.63;;;13.80;99.90;;;;;;5068542;28;20216;-76
2022/11/11 16:29:41;;;;;;;4.28;2.45;;;13.80;99.90;;;;;;5069526;28;20693;-76
2022/11/11 16:32:35;;;;;;;3.90;2.92;;;13.80;99.90;;;;;;5068153;28;20189;-76